createdAt,value
2019-03-10T00:01:29.119Z,20.98
2019-03-10T00:06:32.922Z,20.94
2019-03-10T00:11:36.755Z,20.90
2019-03-10T00:16:40.538Z,20.90
2019-03-10T00:21:44.357Z,20.91
2019-03-10T00:26:48.149Z,20.91
2019-03-10T00:31:52.095Z,20.92
2019-03-10T00:36:55.938Z,20.91
2019-03-10T00:42:37.031Z,20.78
2019-03-10T00:48:05.032Z,20.81
2019-03-10T00:53:08.814Z,20.81
2019-03-10T00:58:12.587Z,20.83
2019-03-10T01:03:16.367Z,20.80
2019-03-10T01:08:20.134Z,20.83
2019-03-10T01:13:24.235Z,20.83
2019-03-10T01:18:27.996Z,20.79
2019-03-10T01:23:31.786Z,20.80
2019-03-10T01:28:35.623Z,20.80
2019-03-10T01:34:10.880Z,20.78
2019-03-10T01:39:14.720Z,20.85
2019-03-10T01:44:18.497Z,20.85
2019-03-10T01:49:22.314Z,20.80
2019-03-10T01:54:26.151Z,20.86
2019-03-10T01:59:30.122Z,20.86
2019-03-10T02:04:33.888Z,20.80
2019-03-10T02:09:37.637Z,20.87
2019-03-10T02:14:41.559Z,20.84
2019-03-10T02:19:45.355Z,20.76
2019-03-10T02:24:49.167Z,20.78
2019-03-10T02:29:53.125Z,20.83
2019-03-10T02:34:56.909Z,20.83
2019-03-10T02:40:00.735Z,20.74
2019-03-10T02:45:04.687Z,20.77
2019-03-10T02:50:09.120Z,20.78
2019-03-10T02:55:12.899Z,20.81
2019-03-10T03:00:16.692Z,20.81
2019-03-10T03:05:20.471Z,20.80
2019-03-10T03:10:24.250Z,20.77
2019-03-10T03:15:28.040Z,20.76
2019-03-10T03:20:31.848Z,20.76
2019-03-10T03:25:35.863Z,20.71
2019-03-10T03:30:39.642Z,20.78
2019-03-10T03:36:02.650Z,20.73
2019-03-10T03:41:09.818Z,20.73
2019-03-10T03:46:13.617Z,20.76
2019-03-10T03:51:17.400Z,20.77
2019-03-10T03:56:21.199Z,20.74
2019-03-10T04:01:47.140Z,20.88
2019-03-10T04:06:50.946Z,20.89
2019-03-10T04:11:54.751Z,20.88
2019-03-10T04:16:58.704Z,20.83
2019-03-10T04:22:02.668Z,20.81
2019-03-10T04:27:06.506Z,20.67
2019-03-10T04:32:10.287Z,20.72
2019-03-10T04:37:14.210Z,20.66
2019-03-10T04:42:17.995Z,20.63
2019-03-10T04:47:21.788Z,20.58
2019-03-10T04:52:25.595Z,20.56
2019-03-10T04:57:29.361Z,20.60
2019-03-10T05:02:33.222Z,20.58
2019-03-10T05:07:37.093Z,20.57
2019-03-10T05:12:40.905Z,20.57
2019-03-10T05:17:44.677Z,20.54
2019-03-10T05:22:48.578Z,20.55
2019-03-10T05:27:52.365Z,20.56
2019-03-10T05:32:56.149Z,20.56
2019-03-10T05:37:59.937Z,20.50
2019-03-10T05:43:03.727Z,20.50
2019-03-10T05:48:07.534Z,20.50
2019-03-10T05:53:11.352Z,20.48
2019-03-10T05:58:15.144Z,20.48
2019-03-10T06:03:19.006Z,20.44
2019-03-10T06:08:22.886Z,20.45
2019-03-10T06:13:26.690Z,20.45
2019-03-10T06:18:30.517Z,20.35
2019-03-10T06:23:34.385Z,20.35
2019-03-10T06:28:38.223Z,20.43
2019-03-10T06:33:42.083Z,20.43
2019-03-10T06:38:45.865Z,20.44
2019-03-10T06:43:49.674Z,20.46
2019-03-10T06:48:53.468Z,20.42
2019-03-10T06:53:57.299Z,20.42
2019-03-10T06:59:01.091Z,20.41
2019-03-10T07:04:04.873Z,20.44
2019-03-10T07:09:08.654Z,20.45
2019-03-10T07:14:12.430Z,20.45
2019-03-10T07:19:16.248Z,20.45
2019-03-10T07:24:20.065Z,20.34
2019-03-10T07:29:51.944Z,20.31
2019-03-10T07:35:13.420Z,20.31
2019-03-10T07:40:42.132Z,20.28
2019-03-10T07:46:03.506Z,20.28
2019-03-10T07:51:44.554Z,20.27
2019-03-10T07:57:06.962Z,20.27
2019-03-10T08:02:28.615Z,20.27
2019-03-10T08:07:47.729Z,20.25
2019-03-10T08:13:16.202Z,20.14
2019-03-10T08:18:39.156Z,20.14
2019-03-10T08:23:52.221Z,17.20
2019-03-10T08:29:09.932Z,18.74
2019-03-10T08:34:31.286Z,18.74
2019-03-10T08:39:50.114Z,20.23
2019-03-10T08:45:28.125Z,20.62
2019-03-10T08:50:40.055Z,20.71
2019-03-10T08:55:53.624Z,20.76
2019-03-10T09:01:19.036Z,20.64
2019-03-10T09:06:39.621Z,20.63
2019-03-10T09:12:08.784Z,20.48
2019-03-10T09:17:30.408Z,20.48
2019-03-10T09:22:52.055Z,20.44
2019-03-10T09:28:33.426Z,20.40
2019-03-10T09:33:52.673Z,20.40
2019-03-10T09:39:15.423Z,20.37
2019-03-10T09:44:41.304Z,20.42
2019-03-10T09:50:04.177Z,20.35
2019-03-10T09:55:31.589Z,20.32
2019-03-10T10:00:41.494Z,20.33
2019-03-10T10:05:50.512Z,20.27
2019-03-10T10:11:22.470Z,20.23
2019-03-10T10:16:44.802Z,20.21
2019-03-10T10:22:07.627Z,20.19
2019-03-10T10:33:09.793Z,20.14
2019-03-10T10:38:42.990Z,20.13
2019-03-10T10:44:30.956Z,20.13
2019-03-10T10:50:02.682Z,20.13
2019-03-10T10:55:18.588Z,20.13
2019-03-10T11:00:29.777Z,20.18
2019-03-10T11:05:47.653Z,20.18
2019-03-10T11:11:09.163Z,20.18
2019-03-10T11:16:28.250Z,20.16
2019-03-10T11:21:38.426Z,20.15
2019-03-10T11:26:58.855Z,20.15
2019-03-10T11:32:21.601Z,20.08
2019-03-10T11:37:43.302Z,20.15
2019-03-10T11:43:24.467Z,20.18
2019-03-10T11:48:47.918Z,20.18
2019-03-10T11:54:03.667Z,20.27
2019-03-10T11:59:21.017Z,20.25
2019-03-10T12:04:43.814Z,20.20
2019-03-10T12:09:48.008Z,20.17
2019-03-10T12:14:52.272Z,20.18
2019-03-10T12:19:56.224Z,20.18
2019-03-10T12:25:00.386Z,20.20
2019-03-10T12:30:05.368Z,20.10
2019-03-10T12:35:09.523Z,20.22
2019-03-10T12:40:13.813Z,20.22
2019-03-10T12:45:17.839Z,20.22
2019-03-10T12:50:21.779Z,20.27
2019-03-10T12:55:25.845Z,20.28
2019-03-10T13:00:29.933Z,20.32
2019-03-10T13:05:33.897Z,20.31
2019-03-10T13:10:37.971Z,20.27
2019-03-10T13:15:42.005Z,20.27
2019-03-10T13:20:46.770Z,20.35
2019-03-10T13:25:50.719Z,20.39
2019-03-10T13:30:54.731Z,20.42
2019-03-10T13:35:58.753Z,20.42
2019-03-10T13:41:02.803Z,20.42
2019-03-10T13:46:06.894Z,20.43
2019-03-10T13:51:10.756Z,20.43
2019-03-10T13:56:14.700Z,20.49
2019-03-10T14:01:18.663Z,20.57
2019-03-10T14:06:22.677Z,20.79
2019-03-10T14:11:26.606Z,20.78
2019-03-10T14:16:30.646Z,20.78
2019-03-10T14:21:34.561Z,20.75
2019-03-10T14:26:38.444Z,20.65
2019-03-10T14:31:42.332Z,20.66
2019-03-10T14:36:46.134Z,20.64
2019-03-10T14:41:54.429Z,20.64
2019-03-10T14:46:55.773Z,20.63
2019-03-10T14:51:59.713Z,20.52
2019-03-10T14:57:29.283Z,20.77
2019-03-10T15:02:33.051Z,20.77
2019-03-10T15:07:36.844Z,20.83
2019-03-10T15:12:40.752Z,20.86
2019-03-10T15:17:44.559Z,20.82
2019-03-10T15:22:48.401Z,20.82
2019-03-10T15:27:52.280Z,21.00
2019-03-10T15:32:56.048Z,20.77
2019-03-10T15:37:59.894Z,20.76
2019-03-10T15:43:03.684Z,20.81
2019-03-10T15:48:07.511Z,20.81
2019-03-10T15:53:11.361Z,20.84
2019-03-10T15:58:15.171Z,20.84
2019-03-10T16:03:19.038Z,20.79
2019-03-10T16:08:22.819Z,20.82
2019-03-10T16:13:26.636Z,20.83
2019-03-10T16:18:30.425Z,20.83
2019-03-10T16:23:34.292Z,20.80
2019-03-10T16:28:38.243Z,20.80
2019-03-10T16:33:42.157Z,20.79
2019-03-10T16:38:46.060Z,20.78
2019-03-10T16:43:49.987Z,20.75
2019-03-10T16:48:53.859Z,20.71
2019-03-10T16:53:57.745Z,20.75
2019-03-10T16:59:02.263Z,20.77
2019-03-10T17:04:06.066Z,20.77
2019-03-10T17:09:17.930Z,20.77
2019-03-10T17:14:22.213Z,20.74
2019-03-10T17:19:26.306Z,20.74
2019-03-10T17:24:30.334Z,21.15
2019-03-10T17:29:34.342Z,21.51
2019-03-10T17:34:39.669Z,21.68
2019-03-10T17:39:43.626Z,21.68
2019-03-10T17:44:47.433Z,21.81
2019-03-10T17:49:51.314Z,21.83
2019-03-10T17:54:55.123Z,21.89
2019-03-10T17:59:59.054Z,21.86
2019-03-10T18:05:03.110Z,21.90
2019-03-10T18:10:07.599Z,21.90
2019-03-10T18:15:11.596Z,21.88
2019-03-10T18:20:15.410Z,21.94
2019-03-10T18:25:19.240Z,21.94
2019-03-10T18:30:23.113Z,21.98
2019-03-10T18:35:26.890Z,21.99
2019-03-10T18:40:30.698Z,21.99
2019-03-10T18:45:34.536Z,22.03
2019-03-10T18:50:38.342Z,22.03
2019-03-10T18:55:42.177Z,21.94
2019-03-10T19:00:46.030Z,21.94
2019-03-10T19:05:49.952Z,22.05
2019-03-10T19:10:53.759Z,22.05
2019-03-10T19:15:57.658Z,22.01
2019-03-10T19:21:01.559Z,22.01
2019-03-10T19:26:05.430Z,22.16
2019-03-10T19:31:09.350Z,22.16
2019-03-10T19:36:13.153Z,22.04
2019-03-10T19:41:16.971Z,21.99
2019-03-10T19:46:20.793Z,21.94
2019-03-10T19:51:24.612Z,21.99
2019-03-10T19:56:28.419Z,21.90
2019-03-10T20:01:32.435Z,21.95
2019-03-10T20:06:36.307Z,21.95
2019-03-10T20:11:40.178Z,21.99
2019-03-10T20:16:44.120Z,22.00
2019-03-10T20:21:48.049Z,22.00
2019-03-10T20:26:51.938Z,22.07
2019-03-10T20:31:55.773Z,22.07
2019-03-10T20:36:59.641Z,21.96
2019-03-10T20:42:05.443Z,21.77
2019-03-10T20:47:09.067Z,21.76
2019-03-10T20:52:12.882Z,21.63
2019-03-10T20:57:16.709Z,21.61
2019-03-10T21:02:20.663Z,21.61
2019-03-10T21:07:24.659Z,21.52
2019-03-10T21:12:39.474Z,21.52
2019-03-10T21:17:34.297Z,21.46
2019-03-10T21:22:38.283Z,21.45
2019-03-10T21:27:42.255Z,21.41
2019-03-10T21:32:46.360Z,21.41
2019-03-10T21:37:50.332Z,21.41
2019-03-10T21:42:54.387Z,21.26
2019-03-10T21:47:58.474Z,21.26
2019-03-10T21:53:02.613Z,21.22
2019-03-10T21:58:06.635Z,21.24
2019-03-10T22:03:10.664Z,21.24
2019-03-10T22:08:14.827Z,21.24
2019-03-10T22:13:18.761Z,21.18
2019-03-10T22:18:23.163Z,21.18
2019-03-10T22:23:27.119Z,21.16
2019-03-10T22:28:31.001Z,21.10
2019-03-10T22:33:35.075Z,21.13
2019-03-10T22:38:39.028Z,21.13
2019-03-10T22:43:42.938Z,21.11
2019-03-10T22:48:46.967Z,21.08
2019-03-10T22:53:51.028Z,21.06
2019-03-10T22:58:55.071Z,20.95
2019-03-10T23:03:59.108Z,20.95
2019-03-10T23:09:03.157Z,21.01
2019-03-10T23:14:08.134Z,21.01
2019-03-10T23:19:12.118Z,21.11
2019-03-10T23:24:16.240Z,21.06
2019-03-10T23:29:20.173Z,21.14
2019-03-10T23:34:24.256Z,21.07
2019-03-10T23:39:28.328Z,21.08
2019-03-10T23:44:32.254Z,21.08
2019-03-10T23:49:36.164Z,21.11
2019-03-10T23:54:40.150Z,21.10
2019-03-10T23:59:43.997Z,21.14
